• Join FlightAware (Why Join?)
  • Login
  • US Flag 
05:37AM EST


 

Airport Tracker/Info


-or-


 

Live Flight TrackerFlight Track Log ✈ SWA34 ✈ 28-Apr-2013 ✈ KTUL - KSTL

Flight Track Log - Related Links

Times and Time Zones

All times are in EDT time to prevent confusion due to time zone crossing. See the SWA34 flight status page for this flight to view local times or setup timezone preferences in your user account.

Time Position Orientation Groundspeed Altitude Reporting Facility
EDT Latitude Longitude Course Direction KTS MPH feet Rate Location/Type
06:36PM 36.2136 -95.9800 282° West 234 269 4,300  Level Kansas City Center
06:37PM 36.2436 -95.9781 North 250 288 5,700 1,620 Climbing Kansas City Center
06:37PM 36.2783 -95.9511 32° Northeast 284 327 6,000 480 Climbing Kansas City Center
06:38PM 36.2944 -95.9122 63° Northeast 280 322 6,200 2,160 Climbing Kansas City Center
06:39PM 36.3331 -95.8228 62° Northeast 291 335 9,500 2,820 Climbing Kansas City Center
06:40PM 36.3836 -95.7028 62° Northeast 327 376 12,100 2,460 Climbing Kansas City Center
06:41PM 36.4297 -95.5944 62° Northeast 347 399 14,700 2,160 Climbing Kansas City Center
06:42PM 36.4731 -95.4919 62° Northeast 365 420 16,600 2,100 Climbing Kansas City Center
06:43PM 36.5228 -95.3756 62° Northeast 380 437 19,100 2,400 Climbing Kansas City Center
06:44PM 36.5817 -95.2336 63° Northeast 384 442 21,600 2,040 Climbing Kansas City Center
06:45PM 36.6311 -95.1147 63° Northeast 391 450 23,400 1,620 Climbing Kansas City Center
06:46PM 36.6819 -94.9906 63° Northeast 397 457 25,000 1,440 Climbing Kansas City Center
06:47PM 36.7356 -94.8614 63° Northeast 412 474 26,400 1,260 Climbing Kansas City Center
06:48PM 36.7894 -94.7308 63° Northeast 419 482 27,700 1,680 Climbing Kansas City Center
06:49PM 36.8556 -94.5725 62° Northeast 427 491 29,900 1,800 Climbing Kansas City Center
06:50PM 36.9067 -94.4453 63° Northeast 416 479 31,500 1,020 Climbing Kansas City Center
06:51PM 36.9614 -94.3139 62° Northeast 422 486 32,100 1,020 Climbing Kansas City Center
06:52PM 37.0156 -94.1797 63° Northeast 430 495 33,700 1,380 Climbing Kansas City Center
06:53PM 37.0669 -94.0528 63° Northeast 411 473 35,000 600 Climbing Kansas City Center
06:54PM 37.1194 -93.9228 63° Northeast 414 476 35,000  Level Kansas City Center
06:55PM 37.1794 -93.7742 63° Northeast 421 484 35,000  Level Kansas City Center
06:56PM 37.2311 -93.6439 63° Northeast 418 481 35,000  Level Kansas City Center
06:57PM 37.2839 -93.5156 63° Northeast 415 478 35,000  Level Kansas City Center
06:58PM 37.3358 -93.3867 63° Northeast 412 474 35,000  Level Kansas City Center
06:59PM 37.4058 -93.2717 53° Northeast 414 476 35,000  Level Kansas City Center
07:01PM 37.5117 -93.1542 41° Northeast 419 482 35,000  Level Kansas City Center
07:02PM 37.5967 -93.0581 42° Northeast 415 478 35,000  Level Kansas City Center
07:03PM 37.6814 -92.9575 43° Northeast 415 478 35,000 -480 Level Kansas City Center
07:04PM 37.7656 -92.8575 43° Northeast 414 476 34,100 -960 Descending Kansas City Center
07:05PM 37.8497 -92.7583 43° Northeast 411 473 33,100 -1,020 Descending Kansas City Center
07:06PM 37.9336 -92.6400 48° Northeast 417 480 32,100 -960 Descending Kansas City Center
07:07PM 38.0003 -92.5178 55° Northeast 422 486 31,200 -540 Descending Kansas City Center
07:08PM 38.0694 -92.3900 55° Northeast 435 501 31,000 -120 Descending Kansas City Center
07:09PM 38.1392 -92.2586 56° Northeast 446 513 31,000  Level Kansas City Center
07:10PM 38.2092 -92.1281 56° Northeast 446 513 31,000 -540 Level Kansas City Center
07:11PM 38.2894 -91.9756 56° Northeast 438 504 30,000 -1,980 Descending Kansas City Center
07:12PM 38.3575 -91.8467 56° Northeast 436 502 27,000 -1,500 Descending Kansas City Center
07:13PM 38.4264 -91.7167 56° Northeast 439 505 27,000 -780 Level Kansas City Center
07:14PM 38.4911 -91.5914 57° Northeast 431 496 25,400 -1,920 Descending Kansas City Center
07:15PM 38.5542 -91.4706 56° Northeast 416 479 23,100 -2,220 Descending Kansas City Center
07:16PM 38.6142 -91.3589 55° Northeast 400 460 20,900 -2,160 Descending Kansas City Center
07:17PM 38.6719 -91.2483 56° Northeast 382 440 18,700 -2,340 Descending Kansas City Center
07:18PM 38.6964 -91.0964 78° East 379 436 16,100 -2,220 Descending Kansas City Center
07:19PM 38.7000 -90.9689 88° East 365 420 14,100 -1,920 Descending Kansas City Center
07:20PM 38.7028 -90.8453 88° East 355 409 12,200 -1,860 Descending Kansas City Center
07:21PM 38.7058 -90.7261 88° East 341 392 10,300 -1,440 Descending Kansas City Center
07:22PM 38.7106 -90.6161 87° East 319 367 9,300 -1,080 Descending Kansas City Center
07:23PM 38.7072 -90.5125 92° East 301 346 8,100 -1,080 Descending Kansas City Center
07:24PM 38.6606 -90.4164 122° Southeast 277 319 7,100 -960 Descending Kansas City Center
07:25PM 38.6169 -90.3303 123° Southeast 264 304 6,200 -1,020 Descending Kansas City Center
07:26PM 38.5889 -90.2719 122° Southeast 246 283 5,100 -600 Descending Kansas City Center
07:27PM 38.5564 -90.2114 124° Southeast 227 261 5,000 -60 Descending Kansas City Center
07:28PM 38.5361 -90.1400 110° East 207 238 5,000 -480 Level Kansas City Center
07:29PM 38.5786 -90.1058 32° Northeast 191 220 4,100 -780 Descending Kansas City Center
07:31PM 38.6219 -90.1194 346° North 183 211 3,500 -300 Descending Kansas City Center
07:32PM 38.6539 -90.1661 311° West 176 203 3,500 -360 Level Kansas City Center
07:33PM 38.6797 -90.2200 302° West 176 203 2,800 -840 Descending Kansas City Center
07:34PM 38.7094 -90.2803 302° West 173 199 1,800 -900 Descending Kansas City Center
07:35PM 38.7303 -90.3208 303° West 155 178 1,000 -540 Descending Kansas City Center
07:36PM 38.7494 -90.3594 302° West 149 171 700 -300 Descending Kansas City Center